sensor_id;sensor_type;location;lat;lon;timestamp;temperature;humidity
4518;DHT22;2271;49.464;11.070;2023-06-14T00:00:20;19.70;94.20
4518;DHT22;2271;49.464;11.070;2023-06-14T00:02:46;19.50;94.50
4518;DHT22;2271;49.464;11.070;2023-06-14T00:05:12;19.50;94.80
4518;DHT22;2271;49.464;11.070;2023-06-14T00:07:40;19.40;95.40
4518;DHT22;2271;49.464;11.070;2023-06-14T00:10:10;19.50;95.50
4518;DHT22;2271;49.464;11.070;2023-06-14T00:12:36;19.40;95.50
4518;DHT22;2271;49.464;11.070;2023-06-14T00:15:02;19.40;96.00
4518;DHT22;2271;49.464;11.070;2023-06-14T00:17:28;19.40;96.10
4518;DHT22;2271;49.464;11.070;2023-06-14T00:19:56;19.40;96.50
4518;DHT22;2271;49.464;11.070;2023-06-14T00:22:22;19.20;96.40
4518;DHT22;2271;49.464;11.070;2023-06-14T00:24:50;19.20;96.80
4518;DHT22;2271;49.464;11.070;2023-06-14T00:27:16;19.20;97.10
4518;DHT22;2271;49.464;11.070;2023-06-14T00:29:41;19.20;97.20
4518;DHT22;2271;49.464;11.070;2023-06-14T00:32:07;19.20;97.40
4518;DHT22;2271;49.464;11.070;2023-06-14T00:34:33;19.10;97.50
4518;DHT22;2271;49.464;11.070;2023-06-14T00:36:59;19.10;98.00
4518;DHT22;2271;49.464;11.070;2023-06-14T00:39:25;19.20;98.10
4518;DHT22;2271;49.464;11.070;2023-06-14T00:41:50;19.30;98.10
4518;DHT22;2271;49.464;11.070;2023-06-14T00:44:16;19.20;98.10
4518;DHT22;2271;49.464;11.070;2023-06-14T00:46:43;19.00;98.40
4518;DHT22;2271;49.464;11.070;2023-06-14T00:49:09;19.00;98.90
4518;DHT22;2271;49.464;11.070;2023-06-14T00:51:35;19.00;99.10
4518;DHT22;2271;49.464;11.070;2023-06-14T00:54:03;19.00;99.20
4518;DHT22;2271;49.464;11.070;2023-06-14T00:56:29;19.10;99.10
4518;DHT22;2271;49.464;11.070;2023-06-14T00:58:55;19.10;99.20
4518;DHT22;2271;49.464;11.070;2023-06-14T01:01:21;19.10;99.30
4518;DHT22;2271;49.464;11.070;2023-06-14T01:03:47;19.10;99.50
4518;DHT22;2271;49.464;11.070;2023-06-14T01:09:13;19.10;99.80
4518;DHT22;2271;49.464;11.070;2023-06-14T01:14:19;19.00;99.90
4518;DHT22;2271;49.464;11.070;2023-06-14T01:16:47;18.90;99.90
4518;DHT22;2271;49.464;11.070;2023-06-14T01:19:13;18.70;99.90
4518;DHT22;2271;49.464;11.070;2023-06-14T01:21:40;18.70;99.90
4518;DHT22;2271;49.464;11.070;2023-06-14T01:24:08;18.70;99.90
4518;DHT22;2271;49.464;11.070;2023-06-14T01:26:35;18.70;99.90
4518;DHT22;2271;49.464;11.070;2023-06-14T01:29:03;18.50;99.90
4518;DHT22;2271;49.464;11.070;2023-06-14T01:31:29;18.50;99.90
4518;DHT22;2271;49.464;11.070;2023-06-14T01:34:05;18.40;99.90
4518;DHT22;2271;49.464;11.070;2023-06-14T01:36:31;18.30;99.90
4518;DHT22;2271;49.464;11.070;2023-06-14T01:38:59;18.30;99.90
4518;DHT22;2271;49.464;11.070;2023-06-14T01:41:25;18.30;99.90
4518;DHT22;2271;49.464;11.070;2023-06-14T01:43:51;18.30;99.90
4518;DHT22;2271;49.464;11.070;2023-06-14T01:46:17;18.30;99.90
4518;DHT22;2271;49.464;11.070;2023-06-14T01:48:44;18.30;99.90
4518;DHT22;2271;49.464;11.070;2023-06-14T01:51:10;18.40;99.90
4518;DHT22;2271;49.464;11.070;2023-06-14T01:53:36;18.40;99.90
4518;DHT22;2271;49.464;11.070;2023-06-14T01:56:02;18.30;99.90
4518;DHT22;2271;49.464;11.070;2023-06-14T01:58:27;18.20;99.90
4518;DHT22;2271;49.464;11.070;2023-06-14T02:00:53;18.10;99.90
4518;DHT22;2271;49.464;11.070;2023-06-14T02:03:21;18.10;99.90
4518;DHT22;2271;49.464;11.070;2023-06-14T02:05:46;18.20;99.90
4518;DHT22;2271;49.464;11.070;2023-06-14T02:08:12;18.20;99.90
4518;DHT22;2271;49.464;11.070;2023-06-14T02:10:38;18.20;99.90
4518;DHT22;2271;49.464;11.070;2023-06-14T02:13:03;18.10;99.90
4518;DHT22;2271;49.464;11.070;2023-06-14T02:15:29;18.00;99.90
4518;DHT22;2271;49.464;11.070;2023-06-14T02:18:00;18.00;99.90
4518;DHT22;2271;49.464;11.070;2023-06-14T02:20:26;17.90;99.90
4518;DHT22;2271;49.464;11.070;2023-06-14T02:22:51;17.90;99.90
4518;DHT22;2271;49.464;11.070;2023-06-14T02:25:17;18.00;99.90
4518;DHT22;2271;49.464;11.070;2023-06-14T02:27:43;18.00;99.90
4518;DHT22;2271;49.464;11.070;2023-06-14T02:30:09;17.90;99.90
4518;DHT22;2271;49.464;11.070;2023-06-14T02:32:34;17.80;99.90
4518;DHT22;2271;49.464;11.070;2023-06-14T02:35:01;17.80;99.90
4518;DHT22;2271;49.464;11.070;2023-06-14T02:37:27;17.90;99.90
4518;DHT22;2271;49.464;11.070;2023-06-14T02:39:53;17.90;99.90
4518;DHT22;2271;49.464;11.070;2023-06-14T02:42:18;17.80;99.90
4518;DHT22;2271;49.464;11.070;2023-06-14T02:44:44;17.80;99.90
4518;DHT22;2271;49.464;11.070;2023-06-14T02:47:11;17.80;99.90
4518;DHT22;2271;49.464;11.070;2023-06-14T02:49:37;17.90;99.90
4518;DHT22;2271;49.464;11.070;2023-06-14T02:52:03;17.90;99.90
4518;DHT22;2271;49.464;11.070;2023-06-14T02:54:28;17.70;99.90
4518;DHT22;2271;49.464;11.070;2023-06-14T02:56:54;17.40;99.90
4518;DHT22;2271;49.464;11.070;2023-06-14T02:59:20;17.20;99.90
4518;DHT22;2271;49.464;11.070;2023-06-14T03:01:47;17.30;99.90
4518;DHT22;2271;49.464;11.070;2023-06-14T03:04:12;17.40;99.90
4518;DHT22;2271;49.464;11.070;2023-06-14T03:06:38;17.30;99.90
4518;DHT22;2271;49.464;11.070;2023-06-14T03:09:05;17.20;99.90
4518;DHT22;2271;49.464;11.070;2023-06-14T03:11:31;17.20;99.90
4518;DHT22;2271;49.464;11.070;2023-06-14T03:13:57;17.10;99.90
4518;DHT22;2271;49.464;11.070;2023-06-14T03:16:23;17.10;99.90
4518;DHT22;2271;49.464;11.070;2023-06-14T03:18:52;16.80;99.90
4518;DHT22;2271;49.464;11.070;2023-06-14T03:21:19;16.60;99.90
4518;DHT22;2271;49.464;11.070;2023-06-14T03:23:46;16.60;99.90
4518;DHT22;2271;49.464;11.070;2023-06-14T03:26:12;16.70;99.90
4518;DHT22;2271;49.464;11.070;2023-06-14T03:28:40;16.80;99.90
4518;DHT22;2271;49.464;11.070;2023-06-14T03:31:07;16.70;99.90
4518;DHT22;2271;49.464;11.070;2023-06-14T03:33:34;16.70;99.90
4518;DHT22;2271;49.464;11.070;2023-06-14T03:36:01;16.70;99.90
4518;DHT22;2271;49.464;11.070;2023-06-14T03:38:26;16.80;99.90
4518;DHT22;2271;49.464;11.070;2023-06-14T03:40:52;16.80;99.90
4518;DHT22;2271;49.464;11.070;2023-06-14T03:43:18;16.90;99.90
4518;DHT22;2271;49.464;11.070;2023-06-14T03:45:43;17.10;99.90
4518;DHT22;2271;49.464;11.070;2023-06-14T03:48:09;18.80;99.90
4518;DHT22;2271;49.464;11.070;2023-06-14T03:50:35;19.60;99.90
4518;DHT22;2271;49.464;11.070;2023-06-14T03:53:03;20.30;99.90
4518;DHT22;2271;49.464;11.070;2023-06-14T03:55:29;20.30;99.90
4518;DHT22;2271;49.464;11.070;2023-06-14T03:57:57;20.30;99.90
4518;DHT22;2271;49.464;11.070;2023-06-14T04:00:22;20.00;99.90
4518;DHT22;2271;49.464;11.070;2023-06-14T04:02:48;19.90;99.90
4518;DHT22;2271;49.464;11.070;2023-06-14T04:05:14;20.10;99.90
4518;DHT22;2271;49.464;11.070;2023-06-14T04:07:42;20.50;99.90
4518;DHT22;2271;49.464;11.070;2023-06-14T04:10:14;20.50;99.90
4518;DHT22;2271;49.464;11.070;2023-06-14T04:12:40;20.00;99.90
4518;DHT22;2271;49.464;11.070;2023-06-14T04:15:06;20.20;99.90
4518;DHT22;2271;49.464;11.070;2023-06-14T04:17:33;20.40;99.90
4518;DHT22;2271;49.464;11.070;2023-06-14T04:20:00;19.70;99.90
4518;DHT22;2271;49.464;11.070;2023-06-14T04:22:26;19.30;99.90
4518;DHT22;2271;49.464;11.070;2023-06-14T04:25:12;19.10;99.90
4518;DHT22;2271;49.464;11.070;2023-06-14T04:27:38;18.60;99.90
4518;DHT22;2271;49.464;11.070;2023-06-14T04:30:04;18.60;99.90
4518;DHT22;2271;49.464;11.070;2023-06-14T04:32:30;18.50;99.90
4518;DHT22;2271;49.464;11.070;2023-06-14T04:34:59;18.60;99.90
4518;DHT22;2271;49.464;11.070;2023-06-14T04:37:27;18.60;99.90
4518;DHT22;2271;49.464;11.070;2023-06-14T04:39:54;18.70;99.90
4518;DHT22;2271;49.464;11.070;2023-06-14T04:42:21;18.40;99.90
4518;DHT22;2271;49.464;11.070;2023-06-14T04:44:50;18.70;99.90
4518;DHT22;2271;49.464;11.070;2023-06-14T04:47:16;19.20;99.90
4518;DHT22;2271;49.464;11.070;2023-06-14T04:49:42;19.00;99.90
4518;DHT22;2271;49.464;11.070;2023-06-14T04:52:08;19.00;99.90
4518;DHT22;2271;49.464;11.070;2023-06-14T04:54:36;18.80;99.90
4518;DHT22;2271;49.464;11.070;2023-06-14T04:57:04;18.60;99.90
4518;DHT22;2271;49.464;11.070;2023-06-14T04:59:31;18.00;99.90
4518;DHT22;2271;49.464;11.070;2023-06-14T05:01:59;17.90;99.90
4518;DHT22;2271;49.464;11.070;2023-06-14T05:04:25;17.60;99.90
4518;DHT22;2271;49.464;11.070;2023-06-14T05:06:52;17.80;99.90
4518;DHT22;2271;49.464;11.070;2023-06-14T05:09:20;17.90;99.90
4518;DHT22;2271;49.464;11.070;2023-06-14T05:11:46;18.00;99.90
4518;DHT22;2271;49.464;11.070;2023-06-14T05:14:13;18.10;99.90
4518;DHT22;2271;49.464;11.070;2023-06-14T05:16:39;17.90;99.90
4518;DHT22;2271;49.464;11.070;2023-06-14T05:19:06;17.70;99.90
4518;DHT22;2271;49.464;11.070;2023-06-14T05:21:31;17.80;99.90
4518;DHT22;2271;49.464;11.070;2023-06-14T05:23:59;18.20;99.90
4518;DHT22;2271;49.464;11.070;2023-06-14T05:26:25;18.30;99.90
4518;DHT22;2271;49.464;11.070;2023-06-14T05:28:54;18.40;99.90
4518;DHT22;2271;49.464;11.070;2023-06-14T05:31:22;18.30;99.90
4518;DHT22;2271;49.464;11.070;2023-06-14T05:33:48;18.30;99.90
4518;DHT22;2271;49.464;11.070;2023-06-14T05:36:14;18.30;99.90
4518;DHT22;2271;49.464;11.070;2023-06-14T05:38:39;18.20;99.90
4518;DHT22;2271;49.464;11.070;2023-06-14T05:41:05;18.00;99.90
4518;DHT22;2271;49.464;11.070;2023-06-14T05:43:31;18.10;99.90
4518;DHT22;2271;49.464;11.070;2023-06-14T05:45:57;18.00;99.90
4518;DHT22;2271;49.464;11.070;2023-06-14T05:48:22;17.70;99.90
4518;DHT22;2271;49.464;11.070;2023-06-14T05:50:48;17.50;99.90
4518;DHT22;2271;49.464;11.070;2023-06-14T05:53:14;17.40;99.90
4518;DHT22;2271;49.464;11.070;2023-06-14T05:55:39;17.50;99.90
4518;DHT22;2271;49.464;11.070;2023-06-14T05:58:05;17.70;99.90
4518;DHT22;2271;49.464;11.070;2023-06-14T06:00:31;18.10;99.90
4518;DHT22;2271;49.464;11.070;2023-06-14T06:02:57;18.40;99.90
4518;DHT22;2271;49.464;11.070;2023-06-14T06:05:23;18.50;99.90
4518;DHT22;2271;49.464;11.070;2023-06-14T06:07:49;18.50;99.90
4518;DHT22;2271;49.464;11.070;2023-06-14T06:10:15;18.40;99.90
4518;DHT22;2271;49.464;11.070;2023-06-14T06:12:41;18.60;99.90
4518;DHT22;2271;49.464;11.070;2023-06-14T06:15:07;18.40;99.90
4518;DHT22;2271;49.464;11.070;2023-06-14T06:17:37;18.50;99.90
4518;DHT22;2271;49.464;11.070;2023-06-14T06:20:03;18.40;99.90
4518;DHT22;2271;49.464;11.070;2023-06-14T06:22:31;18.30;99.90
4518;DHT22;2271;49.464;11.070;2023-06-14T06:24:56;18.70;99.90
4518;DHT22;2271;49.464;11.070;2023-06-14T06:27:22;19.00;99.90
4518;DHT22;2271;49.464;11.070;2023-06-14T06:29:47;19.30;99.90
4518;DHT22;2271;49.464;11.070;2023-06-14T06:32:14;19.60;99.90
4518;DHT22;2271;49.464;11.070;2023-06-14T06:34:40;20.00;99.90
4518;DHT22;2271;49.464;11.070;2023-06-14T06:37:06;19.60;99.90
4518;DHT22;2271;49.464;11.070;2023-06-14T06:39:31;19.60;99.90
4518;DHT22;2271;49.464;11.070;2023-06-14T06:41:57;19.90;99.90
4518;DHT22;2271;49.464;11.070;2023-06-14T06:44:23;19.80;99.90
4518;DHT22;2271;49.464;11.070;2023-06-14T06:46:48;20.00;99.90
4518;DHT22;2271;49.464;11.070;2023-06-14T06:49:14;20.30;99.90
4518;DHT22;2271;49.464;11.070;2023-06-14T06:51:43;20.50;99.90
4518;DHT22;2271;49.464;11.070;2023-06-14T06:54:10;20.50;99.90
4518;DHT22;2271;49.464;11.070;2023-06-14T06:56:36;20.90;99.90
4518;DHT22;2271;49.464;11.070;2023-06-14T06:59:01;21.10;99.90
4518;DHT22;2271;49.464;11.070;2023-06-14T07:01:27;21.10;99.90
4518;DHT22;2271;49.464;11.070;2023-06-14T07:03:55;21.30;99.90
4518;DHT22;2271;49.464;11.070;2023-06-14T07:06:21;21.00;99.90
4518;DHT22;2271;49.464;11.070;2023-06-14T07:08:46;20.90;99.90
4518;DHT22;2271;49.464;11.070;2023-06-14T07:11:15;21.00;99.90
4518;DHT22;2271;49.464;11.070;2023-06-14T07:13:41;21.10;99.90
4518;DHT22;2271;49.464;11.070;2023-06-14T07:16:07;21.20;99.90
4518;DHT22;2271;49.464;11.070;2023-06-14T07:18:32;21.30;99.90
4518;DHT22;2271;49.464;11.070;2023-06-14T07:20:58;21.50;99.90
4518;DHT22;2271;49.464;11.070;2023-06-14T07:23:23;21.90;99.90
4518;DHT22;2271;49.464;11.070;2023-06-14T07:25:49;21.90;99.90
4518;DHT22;2271;49.464;11.070;2023-06-14T07:28:16;22.00;99.90
4518;DHT22;2271;49.464;11.070;2023-06-14T07:30:42;22.20;99.90
4518;DHT22;2271;49.464;11.070;2023-06-14T07:33:08;22.30;99.90
4518;DHT22;2271;49.464;11.070;2023-06-14T07:35:33;22.30;99.90
4518;DHT22;2271;49.464;11.070;2023-06-14T07:37:59;22.30;99.90
4518;DHT22;2271;49.464;11.070;2023-06-14T07:40:26;22.50;99.90
4518;DHT22;2271;49.464;11.070;2023-06-14T07:42:51;22.70;99.90
4518;DHT22;2271;49.464;11.070;2023-06-14T07:45:19;22.50;99.90
4518;DHT22;2271;49.464;11.070;2023-06-14T07:47:45;22.50;99.90
4518;DHT22;2271;49.464;11.070;2023-06-14T07:50:10;22.70;99.90
4518;DHT22;2271;49.464;11.070;2023-06-14T07:52:38;22.80;99.90
4518;DHT22;2271;49.464;11.070;2023-06-14T07:55:04;22.90;99.90
4518;DHT22;2271;49.464;11.070;2023-06-14T07:57:30;22.80;99.90
4518;DHT22;2271;49.464;11.070;2023-06-14T07:59:56;22.80;99.90
4518;DHT22;2271;49.464;11.070;2023-06-14T08:02:21;22.70;99.90
4518;DHT22;2271;49.464;11.070;2023-06-14T08:04:47;22.60;99.90
4518;DHT22;2271;49.464;11.070;2023-06-14T08:07:14;22.50;99.90
4518;DHT22;2271;49.464;11.070;2023-06-14T08:09:40;22.60;99.90
4518;DHT22;2271;49.464;11.070;2023-06-14T08:12:06;22.60;99.90
4518;DHT22;2271;49.464;11.070;2023-06-14T08:14:33;22.90;99.90
4518;DHT22;2271;49.464;11.070;2023-06-14T08:16:59;23.10;99.90
4518;DHT22;2271;49.464;11.070;2023-06-14T08:19:25;23.20;99.90
4518;DHT22;2271;49.464;11.070;2023-06-14T08:21:50;23.10;99.90
4518;DHT22;2271;49.464;11.070;2023-06-14T08:24:16;23.20;99.90
4518;DHT22;2271;49.464;11.070;2023-06-14T08:26:42;23.20;99.90
4518;DHT22;2271;49.464;11.070;2023-06-14T08:29:08;23.30;99.90
4518;DHT22;2271;49.464;11.070;2023-06-14T08:31:33;23.50;99.90
4518;DHT22;2271;49.464;11.070;2023-06-14T08:33:59;23.60;99.90
4518;DHT22;2271;49.464;11.070;2023-06-14T08:36:25;23.80;99.90
4518;DHT22;2271;49.464;11.070;2023-06-14T08:38:50;23.60;99.30
4518;DHT22;2271;49.464;11.070;2023-06-14T08:41:25;23.50;99.70
4518;DHT22;2271;49.464;11.070;2023-06-14T08:43:52;23.40;99.30
4518;DHT22;2271;49.464;11.070;2023-06-14T08:46:18;23.40;99.90
4518;DHT22;2271;49.464;11.070;2023-06-14T08:48:51;23.50;99.90
4518;DHT22;2271;49.464;11.070;2023-06-14T08:51:20;23.70;99.90
4518;DHT22;2271;49.464;11.070;2023-06-14T08:53:55;23.80;99.80
4518;DHT22;2271;49.464;11.070;2023-06-14T08:56:28;24.00;99.90
4518;DHT22;2271;49.464;11.070;2023-06-14T08:58:55;23.70;99.20
4518;DHT22;2271;49.464;11.070;2023-06-14T09:01:22;23.80;99.60
4518;DHT22;2271;49.464;11.070;2023-06-14T09:03:49;23.80;98.30
4518;DHT22;2271;49.464;11.070;2023-06-14T09:06:16;23.90;98.40
4518;DHT22;2271;49.464;11.070;2023-06-14T09:08:46;24.10;98.00
4518;DHT22;2271;49.464;11.070;2023-06-14T09:11:13;24.00;98.00
4518;DHT22;2271;49.464;11.070;2023-06-14T09:13:40;24.00;97.90
4518;DHT22;2271;49.464;11.070;2023-06-14T09:16:09;24.00;97.70
4518;DHT22;2271;49.464;11.070;2023-06-14T09:18:43;23.80;98.20
4518;DHT22;2271;49.464;11.070;2023-06-14T09:21:10;23.60;98.80
4518;DHT22;2271;49.464;11.070;2023-06-14T09:23:39;23.70;98.60
4518;DHT22;2271;49.464;11.070;2023-06-14T09:26:19;23.90;97.70
4518;DHT22;2271;49.464;11.070;2023-06-14T09:28:49;23.50;98.00
4518;DHT22;2271;49.464;11.070;2023-06-14T09:31:19;23.10;98.70
4518;DHT22;2271;49.464;11.070;2023-06-14T09:33:47;22.90;98.10
4518;DHT22;2271;49.464;11.070;2023-06-14T09:36:18;22.80;99.00
4518;DHT22;2271;49.464;11.070;2023-06-14T09:39:00;22.90;99.70
4518;DHT22;2271;49.464;11.070;2023-06-14T09:41:37;23.20;99.70
4518;DHT22;2271;49.464;11.070;2023-06-14T09:44:04;23.50;98.90
4518;DHT22;2271;49.464;11.070;2023-06-14T09:46:30;24.00;98.70
4518;DHT22;2271;49.464;11.070;2023-06-14T09:48:57;24.40;97.80
4518;DHT22;2271;49.464;11.070;2023-06-14T09:51:23;24.40;97.20
4518;DHT22;2271;49.464;11.070;2023-06-14T09:53:50;24.00;97.30
4518;DHT22;2271;49.464;11.070;2023-06-14T09:56:23;24.00;96.20
4518;DHT22;2271;49.464;11.070;2023-06-14T09:58:54;23.80;96.10
4518;DHT22;2271;49.464;11.070;2023-06-14T10:01:21;23.30;96.50
4518;DHT22;2271;49.464;11.070;2023-06-14T10:03:50;23.10;97.30
4518;DHT22;2271;49.464;11.070;2023-06-14T10:06:19;23.00;97.70
4518;DHT22;2271;49.464;11.070;2023-06-14T10:08:50;22.90;98.50
4518;DHT22;2271;49.464;11.070;2023-06-14T10:11:17;22.90;98.30
4518;DHT22;2271;49.464;11.070;2023-06-14T10:13:43;22.90;98.30
4518;DHT22;2271;49.464;11.070;2023-06-14T10:16:16;22.80;98.40
4518;DHT22;2271;49.464;11.070;2023-06-14T10:18:45;22.70;98.30
4518;DHT22;2271;49.464;11.070;2023-06-14T10:21:33;22.60;98.60
4518;DHT22;2271;49.464;11.070;2023-06-14T10:24:05;22.60;98.30
4518;DHT22;2271;49.464;11.070;2023-06-14T10:26:32;22.80;98.10
4518;DHT22;2271;49.464;11.070;2023-06-14T10:29:08;22.90;97.80
4518;DHT22;2271;49.464;11.070;2023-06-14T10:34:11;23.00;97.00
4518;DHT22;2271;49.464;11.070;2023-06-14T10:36:38;23.00;98.20
4518;DHT22;2271;49.464;11.070;2023-06-14T10:39:17;23.00;97.40
4518;DHT22;2271;49.464;11.070;2023-06-14T10:41:52;23.00;97.20
4518;DHT22;2271;49.464;11.070;2023-06-14T10:46:53;22.70;97.50
4518;DHT22;2271;49.464;11.070;2023-06-14T10:49:20;22.60;97.40
4518;DHT22;2271;49.464;11.070;2023-06-14T10:51:57;22.50;97.50
4518;DHT22;2271;49.464;11.070;2023-06-14T10:54:23;22.40;97.50
4518;DHT22;2271;49.464;11.070;2023-06-14T10:56:52;22.40;97.80
4518;DHT22;2271;49.464;11.070;2023-06-14T10:59:19;22.40;98.10
4518;DHT22;2271;49.464;11.070;2023-06-14T11:04:48;22.60;97.50
4518;DHT22;2271;49.464;11.070;2023-06-14T11:10:26;22.60;98.00
4518;DHT22;2271;49.464;11.070;2023-06-14T11:12:55;23.00;96.50
4518;DHT22;2271;49.464;11.070;2023-06-14T11:15:28;23.50;95.10
4518;DHT22;2271;49.464;11.070;2023-06-14T11:17:54;24.00;95.70
4518;DHT22;2271;49.464;11.070;2023-06-14T11:20:25;23.90;94.90
4518;DHT22;2271;49.464;11.070;2023-06-14T11:22:51;23.30;95.80
4518;DHT22;2271;49.464;11.070;2023-06-14T11:25:17;22.60;96.70
4518;DHT22;2271;49.464;11.070;2023-06-14T11:27:43;22.50;97.30
4518;DHT22;2271;49.464;11.070;2023-06-14T11:30:09;22.60;97.00
4518;DHT22;2271;49.464;11.070;2023-06-14T11:32:36;22.60;96.90
4518;DHT22;2271;49.464;11.070;2023-06-14T11:35:03;22.60;97.50
4518;DHT22;2271;49.464;11.070;2023-06-14T11:37:30;22.60;97.20
4518;DHT22;2271;49.464;11.070;2023-06-14T11:40:00;22.60;96.90
4518;DHT22;2271;49.464;11.070;2023-06-14T11:42:29;22.40;96.50
4518;DHT22;2271;49.464;11.070;2023-06-14T11:44:55;22.20;97.00
4518;DHT22;2271;49.464;11.070;2023-06-14T11:47:22;22.20;97.50
4518;DHT22;2271;49.464;11.070;2023-06-14T11:49:47;22.10;97.30
4518;DHT22;2271;49.464;11.070;2023-06-14T11:52:14;22.20;97.10
4518;DHT22;2271;49.464;11.070;2023-06-14T11:54:40;22.30;97.10
4518;DHT22;2271;49.464;11.070;2023-06-14T11:57:07;22.50;97.10
4518;DHT22;2271;49.464;11.070;2023-06-14T11:59:38;22.60;97.40
4518;DHT22;2271;49.464;11.070;2023-06-14T12:02:04;22.80;97.50
4518;DHT22;2271;49.464;11.070;2023-06-14T12:04:30;23.00;98.20
4518;DHT22;2271;49.464;11.070;2023-06-14T12:06:56;23.10;96.80
4518;DHT22;2271;49.464;11.070;2023-06-14T12:09:23;23.10;96.10
4518;DHT22;2271;49.464;11.070;2023-06-14T12:11:59;23.30;96.20
4518;DHT22;2271;49.464;11.070;2023-06-14T12:14:31;23.80;97.10
4518;DHT22;2271;49.464;11.070;2023-06-14T12:17:06;24.10;95.30
4518;DHT22;2271;49.464;11.070;2023-06-14T12:19:45;24.20;94.00
4518;DHT22;2271;49.464;11.070;2023-06-14T12:22:12;24.10;93.60
4518;DHT22;2271;49.464;11.070;2023-06-14T12:24:38;24.10;93.50
4518;DHT22;2271;49.464;11.070;2023-06-14T12:27:05;24.20;92.40
4518;DHT22;2271;49.464;11.070;2023-06-14T12:29:31;24.00;93.10
4518;DHT22;2271;49.464;11.070;2023-06-14T12:31:57;24.00;93.00
4518;DHT22;2271;49.464;11.070;2023-06-14T12:34:24;23.90;92.70
4518;DHT22;2271;49.464;11.070;2023-06-14T12:36:53;23.90;92.90
4518;DHT22;2271;49.464;11.070;2023-06-14T12:39:19;23.80;92.60
4518;DHT22;2271;49.464;11.070;2023-06-14T12:41:46;23.30;92.60
4518;DHT22;2271;49.464;11.070;2023-06-14T12:44:12;22.70;93.40
4518;DHT22;2271;49.464;11.070;2023-06-14T12:46:39;22.30;93.70
4518;DHT22;2271;49.464;11.070;2023-06-14T12:49:07;22.20;93.90
4518;DHT22;2271;49.464;11.070;2023-06-14T12:51:34;22.30;94.00
4518;DHT22;2271;49.464;11.070;2023-06-14T12:54:00;22.30;94.00
4518;DHT22;2271;49.464;11.070;2023-06-14T12:56:26;22.40;94.20
4518;DHT22;2271;49.464;11.070;2023-06-14T12:58:52;22.60;94.20
4518;DHT22;2271;49.464;11.070;2023-06-14T13:01:18;22.80;94.40
4518;DHT22;2271;49.464;11.070;2023-06-14T13:03:43;23.00;95.00
4518;DHT22;2271;49.464;11.070;2023-06-14T13:06:09;23.20;94.60
4518;DHT22;2271;49.464;11.070;2023-06-14T13:08:35;23.40;95.00
4518;DHT22;2271;49.464;11.070;2023-06-14T13:11:00;23.40;93.40
4518;DHT22;2271;49.464;11.070;2023-06-14T13:13:26;23.30;93.80
4518;DHT22;2271;49.464;11.070;2023-06-14T13:15:52;23.40;93.80
4518;DHT22;2271;49.464;11.070;2023-06-14T13:18:17;23.70;94.40
4518;DHT22;2271;49.464;11.070;2023-06-14T13:20:45;23.70;93.90
4518;DHT22;2271;49.464;11.070;2023-06-14T13:23:10;23.80;93.80
4518;DHT22;2271;49.464;11.070;2023-06-14T13:25:37;23.80;93.60
4518;DHT22;2271;49.464;11.070;2023-06-14T13:28:04;23.80;93.60
4518;DHT22;2271;49.464;11.070;2023-06-14T13:30:31;23.70;92.90
4518;DHT22;2271;49.464;11.070;2023-06-14T13:32:57;23.50;92.80
4518;DHT22;2271;49.464;11.070;2023-06-14T13:35:23;23.50;92.80
4518;DHT22;2271;49.464;11.070;2023-06-14T13:37:50;23.40;92.60
4518;DHT22;2271;49.464;11.070;2023-06-14T13:40:15;23.50;92.30
4518;DHT22;2271;49.464;11.070;2023-06-14T13:42:41;23.80;92.30
4518;DHT22;2271;49.464;11.070;2023-06-14T13:45:08;24.10;92.50
4518;DHT22;2271;49.464;11.070;2023-06-14T13:47:34;24.50;92.30
4518;DHT22;2271;49.464;11.070;2023-06-14T13:50:00;24.80;92.30
4518;DHT22;2271;49.464;11.070;2023-06-14T13:52:25;25.00;91.20
4518;DHT22;2271;49.464;11.070;2023-06-14T13:54:51;24.90;91.40
4518;DHT22;2271;49.464;11.070;2023-06-14T13:57:17;24.60;90.50
4518;DHT22;2271;49.464;11.070;2023-06-14T13:59:43;24.30;91.30
4518;DHT22;2271;49.464;11.070;2023-06-14T14:02:10;24.40;91.80
4518;DHT22;2271;49.464;11.070;2023-06-14T14:04:37;24.50;92.30
4518;DHT22;2271;49.464;11.070;2023-06-14T14:07:04;24.50;91.70
4518;DHT22;2271;49.464;11.070;2023-06-14T14:09:30;24.10;91.40
4518;DHT22;2271;49.464;11.070;2023-06-14T14:11:56;24.00;92.20
4518;DHT22;2271;49.464;11.070;2023-06-14T14:14:22;23.80;92.50
4518;DHT22;2271;49.464;11.070;2023-06-14T14:16:49;23.80;92.50
4518;DHT22;2271;49.464;11.070;2023-06-14T14:19:17;23.80;92.40
4518;DHT22;2271;49.464;11.070;2023-06-14T14:21:44;23.50;92.10
4518;DHT22;2271;49.464;11.070;2023-06-14T14:24:10;23.30;92.60
4518;DHT22;2271;49.464;11.070;2023-06-14T14:26:35;22.90;92.40
4518;DHT22;2271;49.464;11.070;2023-06-14T14:29:01;22.70;92.70
4518;DHT22;2271;49.464;11.070;2023-06-14T14:31:28;22.70;93.10
4518;DHT22;2271;49.464;11.070;2023-06-14T14:33:53;22.90;92.90
4518;DHT22;2271;49.464;11.070;2023-06-14T14:36:19;23.00;92.90
4518;DHT22;2271;49.464;11.070;2023-06-14T14:38:45;22.90;92.30
4518;DHT22;2271;49.464;11.070;2023-06-14T14:41:12;23.00;92.60
4518;DHT22;2271;49.464;11.070;2023-06-14T14:43:38;23.10;93.20
4518;DHT22;2271;49.464;11.070;2023-06-14T14:46:04;23.30;92.80
4518;DHT22;2271;49.464;11.070;2023-06-14T14:48:29;23.40;93.00
4518;DHT22;2271;49.464;11.070;2023-06-14T14:50:55;23.50;91.50
4518;DHT22;2271;49.464;11.070;2023-06-14T14:53:21;23.50;92.30
4518;DHT22;2271;49.464;11.070;2023-06-14T14:55:46;23.60;93.00
4518;DHT22;2271;49.464;11.070;2023-06-14T14:58:12;23.70;91.90
4518;DHT22;2271;49.464;11.070;2023-06-14T15:00:38;23.80;92.30
4518;DHT22;2271;49.464;11.070;2023-06-14T15:03:04;24.00;91.60
4518;DHT22;2271;49.464;11.070;2023-06-14T15:05:30;24.10;89.90
4518;DHT22;2271;49.464;11.070;2023-06-14T15:07:55;24.00;90.40
4518;DHT22;2271;49.464;11.070;2023-06-14T15:10:21;24.10;91.10
4518;DHT22;2271;49.464;11.070;2023-06-14T15:12:47;24.10;90.80
4518;DHT22;2271;49.464;11.070;2023-06-14T15:15:12;24.10;90.70
4518;DHT22;2271;49.464;11.070;2023-06-14T15:17:38;24.10;90.80
4518;DHT22;2271;49.464;11.070;2023-06-14T15:20:04;24.00;90.50
4518;DHT22;2271;49.464;11.070;2023-06-14T15:22:31;23.80;90.70
4518;DHT22;2271;49.464;11.070;2023-06-14T15:24:57;23.80;90.70
4518;DHT22;2271;49.464;11.070;2023-06-14T15:27:22;23.80;90.60
4518;DHT22;2271;49.464;11.070;2023-06-14T15:29:48;23.90;90.60
4518;DHT22;2271;49.464;11.070;2023-06-14T15:32:14;23.80;90.30
4518;DHT22;2271;49.464;11.070;2023-06-14T15:34:39;23.70;90.60
4518;DHT22;2271;49.464;11.070;2023-06-14T15:37:08;23.70;90.60
4518;DHT22;2271;49.464;11.070;2023-06-14T15:39:34;23.70;89.90
4518;DHT22;2271;49.464;11.070;2023-06-14T15:42:00;23.60;90.60
4518;DHT22;2271;49.464;11.070;2023-06-14T15:44:26;23.70;90.60
4518;DHT22;2271;49.464;11.070;2023-06-14T15:46:52;23.70;90.80
4518;DHT22;2271;49.464;11.070;2023-06-14T15:49:18;23.80;91.30
4518;DHT22;2271;49.464;11.070;2023-06-14T15:51:44;23.80;89.50
4518;DHT22;2271;49.464;11.070;2023-06-14T15:54:10;23.80;90.00
4518;DHT22;2271;49.464;11.070;2023-06-14T15:56:36;23.80;90.40
4518;DHT22;2271;49.464;11.070;2023-06-14T15:59:01;23.90;89.10